createdAt,value
2018-11-23T00:00:57.339Z,98261.05
2018-11-23T00:03:26.419Z,98261.09
2018-11-23T00:05:55.570Z,98264.10
2018-11-23T00:08:39.542Z,98254.60
2018-11-23T00:11:08.611Z,98261.47
2018-11-23T00:13:37.570Z,98258.59
2018-11-23T00:16:06.727Z,98261.29
2018-11-23T00:18:35.714Z,98270.30
2018-11-23T00:21:05.033Z,98267.40
2018-11-23T00:23:34.162Z,98273.48
2018-11-23T00:26:03.159Z,98269.88
2018-11-23T00:28:32.148Z,98264.98
2018-11-23T00:31:01.252Z,98272.88
2018-11-23T00:33:30.275Z,98272.38
2018-11-23T00:35:59.290Z,98272.83
2018-11-23T00:38:28.403Z,98280.16
2018-11-23T00:40:57.424Z,98277.15
2018-11-23T00:43:26.424Z,98280.03
2018-11-23T00:45:55.440Z,98277.73
2018-11-23T00:48:24.415Z,98273.80
2018-11-23T00:50:53.536Z,98278.76
2018-11-23T00:53:22.586Z,98280.98
2018-11-23T00:55:51.655Z,98277.73
2018-11-23T00:58:21.182Z,98278.31
2018-11-23T01:00:51.142Z,98280.98
2018-11-23T01:03:20.117Z,98282.78
2018-11-23T01:05:49.187Z,98280.64
2018-11-23T01:08:18.258Z,98278.76
2018-11-23T01:10:47.232Z,98285.91
2018-11-23T01:13:16.213Z,98281.69
2018-11-23T01:15:45.292Z,98288.26
2018-11-23T01:18:14.265Z,98285.25
2018-11-23T01:20:43.254Z,98284.68
2018-11-23T01:23:12.305Z,98284.31
2018-11-23T01:25:41.294Z,98275.59
2018-11-23T01:28:10.304Z,98282.09
2018-11-23T01:30:39.275Z,98282.29
2018-11-23T01:33:08.321Z,98282.66
2018-11-23T01:35:37.320Z,98277.66
2018-11-23T01:38:06.388Z,98270.18
2018-11-23T01:40:35.349Z,98267.18
2018-11-23T01:43:04.382Z,98270.59
2018-11-23T01:45:33.422Z,98269.77
2018-11-23T01:48:02.445Z,98272.40
2018-11-23T01:50:31.441Z,98270.67
2018-11-23T01:53:00.482Z,98264.59
2018-11-23T01:55:29.531Z,98263.20
2018-11-23T01:57:58.553Z,98269.02
2018-11-23T02:00:28.350Z,98269.55
2018-11-23T02:02:57.928Z,98261.52
2018-11-23T02:05:27.645Z,98263.48
2018-11-23T02:07:56.651Z,98263.72
2018-11-23T02:10:25.655Z,98266.98
2018-11-23T02:12:54.651Z,98261.23
2018-11-23T02:15:23.791Z,98259.52
2018-11-23T02:17:52.790Z,98256.39
2018-11-23T02:20:22.265Z,98252.34
2018-11-23T02:22:51.459Z,98254.10
2018-11-23T02:25:21.211Z,98254.59
2018-11-23T02:27:50.419Z,98254.22
2018-11-23T02:30:20.875Z,98262.97
2018-11-23T02:32:49.980Z,98254.25
2018-11-23T02:35:19.044Z,98256.47
2018-11-23T02:37:48.181Z,98257.04
2018-11-23T02:40:18.214Z,98263.16
2018-11-23T02:42:47.269Z,98264.62
2018-11-23T02:45:18.433Z,98261.09
2018-11-23T02:47:47.839Z,98263.30
2018-11-23T02:50:16.941Z,98262.81
2018-11-23T02:52:46.424Z,98259.92
2018-11-23T02:55:16.614Z,98268.18
2018-11-23T02:57:45.635Z,98262.85
2018-11-23T03:00:18.118Z,98268.93
2018-11-23T03:02:47.202Z,98272.68
2018-11-23T03:05:17.858Z,98262.58
2018-11-23T03:07:46.835Z,98269.85
2018-11-23T03:10:16.540Z,98269.97
2018-11-23T03:12:46.349Z,98272.64
2018-11-23T03:15:17.457Z,98270.95
2018-11-23T03:17:46.991Z,98265.89
2018-11-23T03:20:18.252Z,98268.93
2018-11-23T03:22:47.434Z,98266.11
2018-11-23T03:25:16.535Z,98270.46
2018-11-23T03:27:45.535Z,98275.27
2018-11-23T03:30:17.794Z,98268.24
2018-11-23T03:32:47.733Z,98268.73
2018-11-23T03:35:17.194Z,98263.48
2018-11-23T03:37:46.546Z,98261.17
2018-11-23T03:40:15.590Z,98272.89
2018-11-23T03:42:44.613Z,98265.61
2018-11-23T03:45:14.218Z,98262.08
2018-11-23T03:47:43.621Z,98257.64
2018-11-23T03:50:13.676Z,98256.41
2018-11-23T03:52:43.061Z,98258.30
2018-11-23T03:55:12.130Z,98260.14
2018-11-23T03:57:41.151Z,98263.67
2018-11-23T04:00:17.461Z,98263.63
2018-11-23T04:02:45.880Z,98260.39
2018-11-23T04:05:15.058Z,98265.31
2018-11-23T04:07:44.134Z,98256.49
2018-11-23T04:10:14.286Z,98271.75
2018-11-23T04:12:43.812Z,98264.85
2018-11-23T04:15:13.369Z,98265.63
2018-11-23T04:17:42.690Z,98271.61
2018-11-23T04:20:13.117Z,98277.39
2018-11-23T04:22:42.442Z,98279.87
2018-11-23T04:25:12.065Z,98277.16
2018-11-23T04:27:41.795Z,98272.84
2018-11-23T04:30:13.632Z,98270.26
2018-11-23T04:32:43.116Z,98267.38
2018-11-23T04:35:13.439Z,98275.67
2018-11-23T04:37:43.262Z,98275.37
2018-11-23T04:40:13.078Z,98271.43
2018-11-23T04:42:43.821Z,98266.92
2018-11-23T04:45:13.206Z,98278.48
2018-11-23T04:47:42.183Z,98272.92
2018-11-23T04:50:13.404Z,98279.61
2018-11-23T04:52:42.726Z,98278.86
2018-11-23T04:55:12.067Z,98284.30
2018-11-23T04:57:41.536Z,98279.88
2018-11-23T05:00:13.515Z,98287.27
2018-11-23T05:02:43.250Z,98285.62
2018-11-23T05:05:12.862Z,98291.09
2018-11-23T05:07:42.966Z,98284.94
2018-11-23T05:10:13.543Z,98284.56
2018-11-23T05:12:42.556Z,98285.76
2018-11-23T05:15:13.525Z,98290.91
2018-11-23T05:17:42.798Z,98291.47
2018-11-23T05:20:12.622Z,98296.50
2018-11-23T05:22:42.036Z,98297.85
2018-11-23T05:25:12.660Z,98296.91
2018-11-23T05:27:41.659Z,98304.98
2018-11-23T05:30:16.699Z,98313.44
2018-11-23T05:32:45.849Z,98311.41
2018-11-23T05:35:15.840Z,98309.91
2018-11-23T05:37:44.888Z,98322.41
2018-11-23T05:40:16.256Z,98329.77
2018-11-23T05:42:45.283Z,98323.53
2018-11-23T05:45:16.764Z,98328.64
2018-11-23T05:47:46.187Z,98329.02
2018-11-23T05:50:21.979Z,98319.06
2018-11-23T05:52:51.159Z,98326.73
2018-11-23T05:55:20.258Z,98324.55
2018-11-23T05:57:49.515Z,98326.80
2018-11-23T06:00:28.077Z,98327.55
2018-11-23T06:02:57.218Z,98325.64
2018-11-23T06:05:26.243Z,98340.09
2018-11-23T06:07:55.961Z,98338.73
2018-11-23T06:10:24.957Z,98336.18
2018-11-23T06:12:53.967Z,98341.81
2018-11-23T06:15:23.965Z,98338.05
2018-11-23T06:17:53.008Z,98335.73
2018-11-23T06:20:24.416Z,98338.92
2018-11-23T06:22:55.264Z,98331.37
2018-11-23T06:25:31.056Z,98327.66
2018-11-23T06:28:00.062Z,98326.13
2018-11-23T06:30:29.132Z,98343.39
2018-11-23T06:33:15.108Z,98345.16
2018-11-23T06:35:44.141Z,98347.08
2018-11-23T06:38:13.142Z,98342.23
2018-11-23T06:40:42.160Z,98341.63
2018-11-23T06:43:11.208Z,98345.16
2018-11-23T06:45:42.110Z,98341.19
2018-11-23T06:48:11.483Z,98337.05
2018-11-23T06:50:40.742Z,98348.84
2018-11-23T06:53:09.813Z,98349.33
2018-11-23T06:55:38.804Z,98358.00
2018-11-23T06:58:07.846Z,98361.95
2018-11-23T07:00:37.087Z,98364.05
2018-11-23T07:03:06.209Z,98355.79
2018-11-23T07:05:35.339Z,98365.70
2018-11-23T07:08:04.661Z,98368.30
2018-11-23T07:10:33.830Z,98374.30
2018-11-23T07:13:02.822Z,98377.35
2018-11-23T07:15:31.823Z,98383.28
2018-11-23T07:18:00.797Z,98386.33
2018-11-23T07:20:29.867Z,98387.11
2018-11-23T07:22:58.884Z,98384.94
2018-11-23T07:25:27.927Z,98377.80
2018-11-23T07:27:56.887Z,98374.72
2018-11-23T07:30:27.183Z,98364.05
2018-11-23T07:32:56.448Z,98361.31
2018-11-23T07:35:25.562Z,98364.84
2018-11-23T07:37:54.598Z,98365.70
2018-11-23T07:40:42.037Z,98363.03
2018-11-23T07:43:11.108Z,98366.30
2018-11-23T07:45:40.152Z,98368.78
2018-11-23T07:48:09.525Z,98367.88
2018-11-23T07:50:38.856Z,98368.30
2018-11-23T07:53:08.310Z,98371.64
2018-11-23T07:55:37.328Z,98377.91
2018-11-23T07:58:07.964Z,98377.95
2018-11-23T08:00:36.930Z,98382.61
2018-11-23T08:03:06.040Z,98381.30
2018-11-23T08:05:35.124Z,98389.10
2018-11-23T08:08:04.420Z,98394.77
2018-11-23T08:10:32.924Z,98389.89
2018-11-23T08:13:01.943Z,98390.27
2018-11-23T08:15:30.959Z,98396.00
2018-11-23T08:18:00.006Z,98387.80
2018-11-23T08:20:29.040Z,98379.49
2018-11-23T08:22:58.090Z,98392.42
2018-11-23T08:25:27.186Z,98385.73
2018-11-23T08:27:56.738Z,98392.84
2018-11-23T08:30:28.169Z,98393.86
2018-11-23T08:32:57.585Z,98395.55
2018-11-23T08:35:26.685Z,98392.77
2018-11-23T08:37:55.830Z,98396.83
2018-11-23T08:40:26.220Z,98406.64
2018-11-23T08:42:55.796Z,98404.80
2018-11-23T08:45:26.054Z,98396.05
2018-11-23T08:47:55.073Z,98404.80
2018-11-23T08:50:25.665Z,98410.51
2018-11-23T08:52:54.723Z,98416.45
2018-11-23T08:55:23.836Z,98419.90
2018-11-23T08:57:53.675Z,98428.81
2018-11-23T09:00:24.013Z,98432.12
2018-11-23T09:02:54.630Z,98425.99
2018-11-23T09:05:23.631Z,98414.16
2018-11-23T09:07:53.832Z,98405.63
2018-11-23T09:10:25.412Z,98401.50
2018-11-23T09:12:57.759Z,98409.99
2018-11-23T09:15:26.750Z,98407.78
2018-11-23T09:17:55.820Z,98414.24
2018-11-23T09:20:24.832Z,98416.12
2018-11-23T09:22:53.818Z,98418.75
2018-11-23T09:25:23.539Z,98416.75
2018-11-23T09:27:52.725Z,98406.91
2018-11-23T09:30:23.672Z,98410.37
2018-11-23T09:32:53.485Z,98412.13
2018-11-23T09:35:22.777Z,98419.57
2018-11-23T09:37:52.079Z,98422.87
2018-11-23T09:40:23.351Z,98422.61
2018-11-23T09:42:52.631Z,98421.16
2018-11-23T09:45:23.284Z,98414.84
2018-11-23T09:47:53.802Z,98400.14
2018-11-23T09:50:23.729Z,98413.10
2018-11-23T09:52:53.932Z,98413.34
2018-11-23T09:55:24.115Z,98417.36
2018-11-23T09:57:52.682Z,98416.88
2018-11-23T10:00:22.911Z,98417.43
2018-11-23T10:02:53.073Z,98424.38
2018-11-23T10:05:22.755Z,98406.30
2018-11-23T10:07:53.516Z,98407.17
2018-11-23T10:10:23.127Z,98409.92
2018-11-23T10:12:52.209Z,98404.58
2018-11-23T10:15:22.168Z,98402.58
2018-11-23T10:17:51.220Z,98400.71
2018-11-23T10:20:22.529Z,98399.67
2018-11-23T10:22:51.595Z,98398.16
2018-11-23T10:25:24.890Z,98392.41
2018-11-23T10:27:54.068Z,98384.97
2018-11-23T10:30:26.348Z,98382.20
2018-11-23T10:32:56.871Z,98390.35
2018-11-23T10:35:26.158Z,98389.11
2018-11-23T10:37:56.483Z,98385.24
2018-11-23T10:40:27.029Z,98378.63
2018-11-23T10:42:56.170Z,98379.13
2018-11-23T10:45:26.664Z,98381.45
2018-11-23T10:47:56.465Z,98382.77
2018-11-23T10:50:27.237Z,98376.98
2018-11-23T10:52:56.299Z,98362.47
2018-11-23T10:55:26.944Z,98357.58
2018-11-23T10:57:56.742Z,98360.83
2018-11-23T11:00:31.408Z,98361.73
2018-11-23T11:03:12.734Z,98360.95
2018-11-23T11:05:47.261Z,98348.63
2018-11-23T11:08:16.305Z,98347.47
2018-11-23T11:10:45.296Z,98344.80
2018-11-23T11:13:14.333Z,98347.27
2018-11-23T11:15:43.367Z,98349.48
2018-11-23T11:18:12.387Z,98338.55
2018-11-23T11:20:41.426Z,98345.13
2018-11-23T11:23:10.448Z,98342.33
2018-11-23T11:25:39.541Z,98336.33
2018-11-23T11:28:08.537Z,98333.65
2018-11-23T11:30:37.599Z,98332.66
2018-11-23T11:33:06.650Z,98339.78
2018-11-23T11:35:35.704Z,98337.31
2018-11-23T11:38:04.771Z,98343.77
2018-11-23T11:40:33.798Z,98349.45
2018-11-23T11:43:02.868Z,98348.20
2018-11-23T11:45:31.914Z,98345.00
2018-11-23T11:48:00.966Z,98349.52
2018-11-23T11:50:30.112Z,98349.65
2018-11-23T11:52:59.114Z,98354.09
2018-11-23T11:55:28.115Z,98357.30
2018-11-23T11:57:57.154Z,98358.50
2018-11-23T12:00:26.537Z,98355.98
2018-11-23T12:02:55.855Z,98352.44
2018-11-23T12:05:24.883Z,98347.56
2018-11-23T12:07:54.050Z,98344.92
2018-11-23T12:10:24.483Z,98345.58
2018-11-23T12:12:53.534Z,98347.70
2018-11-23T12:15:22.604Z,98346.27
2018-11-23T12:17:51.639Z,98345.73
2018-11-23T12:20:22.183Z,98335.70
2018-11-23T12:22:51.661Z,98336.73
2018-11-23T12:25:21.366Z,98336.73
2018-11-23T12:27:50.980Z,98329.70
2018-11-23T12:30:20.739Z,98326.50
2018-11-23T12:32:50.977Z,98330.03
2018-11-23T12:35:20.917Z,98329.45
2018-11-23T12:37:50.532Z,98325.10
2018-11-23T12:40:20.186Z,98323.63
2018-11-23T12:42:49.494Z,98314.78
2018-11-23T12:45:19.899Z,98308.86
2018-11-23T12:47:48.954Z,98296.35
2018-11-23T12:50:19.845Z,98284.97
2018-11-23T12:52:48.848Z,98285.81
2018-11-23T12:55:20.532Z,98289.35
2018-11-23T12:57:49.551Z,98288.25
2018-11-23T13:00:24.610Z,98289.16
2018-11-23T13:02:56.235Z,98285.61
2018-11-23T13:05:26.194Z,98279.89
2018-11-23T13:07:56.423Z,98280.05
2018-11-23T13:10:26.518Z,98280.00
2018-11-23T13:12:56.251Z,98280.45
2018-11-23T13:15:25.317Z,98279.23
2018-11-23T13:17:54.837Z,98276.05
2018-11-23T13:20:23.864Z,98270.20
2018-11-23T13:22:52.908Z,98269.53
2018-11-23T13:25:24.396Z,98264.73
2018-11-23T13:27:53.533Z,98265.18
2018-11-23T13:30:26.061Z,98259.19
2018-11-23T13:32:55.123Z,98259.64
2018-11-23T13:35:24.117Z,98258.91
2018-11-23T13:37:53.185Z,98258.77
2018-11-23T13:40:23.462Z,98271.80
2018-11-23T13:42:53.469Z,98275.62
2018-11-23T13:45:23.818Z,98270.49
2018-11-23T13:47:52.851Z,98268.86
2018-11-23T13:50:22.812Z,98272.72
2018-11-23T13:52:53.298Z,98276.16
2018-11-23T13:55:22.347Z,98268.45
2018-11-23T13:57:51.397Z,98265.59
2018-11-23T14:00:24.871Z,98267.00
2018-11-23T14:02:53.953Z,98267.49
2018-11-23T14:05:24.363Z,98262.95
2018-11-23T14:07:54.782Z,98269.58
2018-11-23T14:10:24.952Z,98265.85
2018-11-23T14:12:54.205Z,98269.16
2018-11-23T14:15:25.513Z,98266.30
2018-11-23T14:17:55.668Z,98255.45
2018-11-23T14:20:25.491Z,98255.85
2018-11-23T14:22:54.854Z,98252.91
2018-11-23T14:25:25.411Z,98259.20
2018-11-23T14:27:55.020Z,98258.70
2018-11-23T14:30:25.674Z,98264.88
2018-11-23T14:32:54.777Z,98268.55
2018-11-23T14:35:25.294Z,98273.78
2018-11-23T14:37:55.213Z,98267.42
2018-11-23T14:40:24.332Z,98273.50
2018-11-23T14:42:54.451Z,98277.82
2018-11-23T14:45:26.031Z,98277.58
2018-11-23T14:47:56.196Z,98272.23
2018-11-23T14:50:26.875Z,98283.87
2018-11-23T14:52:56.479Z,98277.42
2018-11-23T14:55:25.926Z,98288.27
2018-11-23T14:57:55.471Z,98273.67
2018-11-23T15:00:33.038Z,98277.63
2018-11-23T15:03:02.949Z,98270.55
2018-11-23T15:05:32.062Z,98270.95
2018-11-23T15:08:01.300Z,98267.66
2018-11-23T15:10:31.573Z,98265.69
2018-11-23T15:13:01.600Z,98268.82
2018-11-23T15:15:32.955Z,98259.66
2018-11-23T15:18:02.032Z,98262.61
2018-11-23T15:20:34.397Z,98259.86
2018-11-23T15:23:08.646Z,98262.82
2018-11-23T15:25:38.094Z,98265.49
2018-11-23T15:28:08.975Z,98264.13
2018-11-23T15:30:38.908Z,98258.22
2018-11-23T15:33:09.269Z,98265.70
2018-11-23T15:35:39.213Z,98259.91
2018-11-23T15:38:11.595Z,98260.32
2018-11-23T15:40:40.577Z,98264.63
2018-11-23T15:43:11.112Z,98265.98
2018-11-23T15:45:40.100Z,98266.69
2018-11-23T15:48:09.731Z,98271.58
2018-11-23T15:50:39.964Z,98268.41
2018-11-23T15:53:12.138Z,98268.94
2018-11-23T15:55:42.237Z,98266.23
2018-11-23T15:58:12.561Z,98264.34
2018-11-23T16:00:43.069Z,98263.68
2018-11-23T16:03:13.451Z,98260.72
2018-11-23T16:05:42.559Z,98258.88
2018-11-23T16:08:15.981Z,98256.83
2018-11-23T16:10:45.083Z,98258.89
2018-11-23T16:13:14.116Z,98265.11
2018-11-23T16:15:43.164Z,98262.84
2018-11-23T16:18:12.780Z,98260.41
2018-11-23T16:20:43.816Z,98257.81
2018-11-23T16:23:17.388Z,98255.32
2018-11-23T16:25:47.561Z,98253.89
2018-11-23T16:28:16.594Z,98257.57
2018-11-23T16:30:47.405Z,98259.59
2018-11-23T16:33:18.020Z,98260.05
2018-11-23T16:35:47.156Z,98255.73
2018-11-23T16:38:17.673Z,98264.16
2018-11-23T16:40:48.588Z,98264.66
2018-11-23T16:43:17.592Z,98257.63
2018-11-23T16:45:46.874Z,98253.69
2018-11-23T16:48:16.450Z,98253.64
2018-11-23T16:50:45.661Z,98256.68
2018-11-23T16:53:14.707Z,98257.09
2018-11-23T16:55:43.800Z,98260.22
2018-11-23T16:58:13.504Z,98260.17
2018-11-23T17:00:43.867Z,98251.51
2018-11-23T17:03:15.379Z,98246.56
2018-11-23T17:05:46.016Z,98248.37
2018-11-23T17:08:14.997Z,98254.67
2018-11-23T17:10:44.139Z,98236.75
2018-11-23T17:13:13.143Z,98241.60
2018-11-23T17:15:42.193Z,98245.88
2018-11-23T17:18:11.190Z,98250.19
2018-11-23T17:20:40.462Z,98246.32
2018-11-23T17:23:10.588Z,98242.83
2018-11-23T17:25:39.663Z,98245.95
2018-11-23T17:28:09.919Z,98245.79
2018-11-23T17:30:39.231Z,98237.03
2018-11-23T17:33:08.275Z,98237.89
2018-11-23T17:35:37.307Z,98236.70
2018-11-23T17:38:06.583Z,98235.22
2018-11-23T17:40:38.257Z,98236.25
2018-11-23T17:43:07.539Z,98225.00
2018-11-23T17:45:37.185Z,98222.23
2018-11-23T17:48:06.566Z,98214.67
2018-11-23T17:50:36.808Z,98222.19
2018-11-23T17:53:05.948Z,98223.14
2018-11-23T17:55:35.078Z,98221.16
2018-11-23T17:58:04.508Z,98220.59
2018-11-23T18:00:39.213Z,98215.46
2018-11-23T18:03:03.878Z,98210.03
2018-11-23T18:05:33.705Z,98204.00
2018-11-23T18:08:03.212Z,98203.64
2018-11-23T18:10:33.206Z,98210.63
2018-11-23T18:13:03.137Z,98205.62
2018-11-23T18:15:33.293Z,98209.74
2018-11-23T18:18:03.473Z,98210.94
2018-11-23T18:20:33.872Z,98214.84
2018-11-23T18:23:03.546Z,98211.75
2018-11-23T18:25:35.473Z,98216.41
2018-11-23T18:28:04.736Z,98214.40
2018-11-23T18:30:34.539Z,98216.71
2018-11-23T18:33:06.773Z,98213.30
2018-11-23T18:35:36.260Z,98215.52
2018-11-23T18:38:05.898Z,98214.70
2018-11-23T18:40:37.215Z,98213.09
2018-11-23T18:43:04.920Z,98213.69
2018-11-23T18:45:34.105Z,98213.69
2018-11-23T18:48:03.408Z,98209.92
2018-11-23T18:50:32.673Z,98207.97
2018-11-23T18:53:02.117Z,98199.00
2018-11-23T18:55:31.308Z,98200.31
2018-11-23T18:58:00.459Z,98198.50
2018-11-23T19:00:29.704Z,98197.97
2018-11-23T19:02:58.712Z,98191.17
2018-11-23T19:05:28.648Z,98185.18
2018-11-23T19:07:57.930Z,98182.02
2018-11-23T19:10:27.099Z,98173.45
2018-11-23T19:12:56.482Z,98181.45
2018-11-23T19:15:25.955Z,98172.02
2018-11-23T19:17:55.079Z,98166.03
2018-11-23T19:20:24.468Z,98166.57
2018-11-23T19:22:55.483Z,98168.02
2018-11-23T19:25:24.508Z,98163.77
2018-11-23T19:27:53.776Z,98171.20
2018-11-23T19:30:28.597Z,98174.42
2018-11-23T19:32:53.548Z,98180.29
2018-11-23T19:35:22.694Z,98174.97
2018-11-23T19:37:51.938Z,98170.34
2018-11-23T19:40:21.079Z,98174.11
2018-11-23T19:42:50.308Z,98168.39
2018-11-23T19:45:19.301Z,98159.89
2018-11-23T19:47:48.643Z,98161.00
2018-11-23T19:50:18.398Z,98142.93
2018-11-23T19:52:48.002Z,98147.97
2018-11-23T19:55:17.877Z,98146.62
2018-11-23T19:57:47.169Z,98137.99
2018-11-23T20:00:21.962Z,98134.55
2018-11-23T20:02:51.061Z,98131.41
2018-11-23T20:05:20.329Z,98118.63
2018-11-23T20:07:53.346Z,98126.23
2018-11-23T20:10:23.350Z,98130.62
2018-11-23T20:12:55.516Z,98124.86
2018-11-23T20:15:24.666Z,98126.05
2018-11-23T20:17:53.774Z,98118.02
2018-11-23T20:20:23.013Z,98117.16
2018-11-23T20:22:52.305Z,98122.10
2018-11-23T20:25:21.845Z,98122.38
2018-11-23T20:27:52.227Z,98118.56
2018-11-23T20:30:21.308Z,98117.78
2018-11-23T20:32:50.534Z,98121.32
2018-11-23T20:35:21.791Z,98124.66
2018-11-23T20:37:50.996Z,98126.38
2018-11-23T20:40:22.494Z,98131.23
2018-11-23T20:42:51.790Z,98132.44
2018-11-23T20:45:22.023Z,98134.00
2018-11-23T20:47:51.350Z,98131.53
2018-11-23T20:50:20.645Z,98133.81
2018-11-23T20:52:49.897Z,98128.20
2018-11-23T20:55:21.684Z,98123.94
2018-11-23T20:57:51.072Z,98112.52
2018-11-23T21:00:21.571Z,98116.65
2018-11-23T21:02:52.590Z,98121.30
2018-11-23T21:05:22.883Z,98108.23
2018-11-23T21:07:52.275Z,98094.69
2018-11-23T21:10:23.849Z,98081.95
2018-11-23T21:12:53.821Z,98085.58
2018-11-23T21:15:29.065Z,98076.73
2018-11-23T21:18:02.969Z,98085.03
2018-11-23T21:20:32.108Z,98079.98
2018-11-23T21:23:01.128Z,98091.00
2018-11-23T21:25:30.204Z,98092.00
2018-11-23T21:27:59.332Z,98073.59
2018-11-23T21:30:28.455Z,98067.48
2018-11-23T21:32:57.736Z,98067.97
2018-11-23T21:35:26.801Z,98064.48
2018-11-23T21:37:55.819Z,98058.86
2018-11-23T21:40:24.866Z,98061.31
2018-11-23T21:42:53.923Z,98058.36
2018-11-23T21:45:22.996Z,98050.70
2018-11-23T21:47:51.994Z,98041.08
2018-11-23T21:50:25.601Z,98045.11
2018-11-23T21:52:50.464Z,98040.67
2018-11-23T21:55:22.114Z,98038.38
2018-11-23T21:57:51.920Z,98039.23
2018-11-23T22:00:21.077Z,98034.69
2018-11-23T22:02:50.099Z,98040.89
2018-11-23T22:05:19.114Z,98048.00
2018-11-23T22:07:48.155Z,98036.63
2018-11-23T22:10:18.728Z,98034.69
2018-11-23T22:12:47.821Z,98029.44
2018-11-23T22:15:22.382Z,98030.96
2018-11-23T22:17:53.085Z,98042.83
2018-11-23T22:20:22.860Z,98038.34
2018-11-23T22:22:51.919Z,98025.20
2018-11-23T22:25:22.184Z,98014.30
2018-11-23T22:27:51.287Z,98005.22
2018-11-23T22:30:30.119Z,97985.66
2018-11-23T22:32:59.981Z,97998.24
2018-11-23T22:35:30.759Z,98007.03
2018-11-23T22:37:59.811Z,98000.14
2018-11-23T22:40:28.857Z,97993.39
2018-11-23T22:42:58.905Z,97992.96
2018-11-23T22:45:27.913Z,97990.59
2018-11-23T22:47:56.960Z,98000.75
2018-11-23T22:50:26.051Z,98008.04
2018-11-23T22:52:55.110Z,98002.25
2018-11-23T22:55:24.105Z,97995.23
2018-11-23T22:57:53.124Z,97995.59
2018-11-23T23:00:31.908Z,97993.01
2018-11-23T23:03:01.100Z,97982.89
2018-11-23T23:05:30.117Z,97987.66
2018-11-23T23:07:59.224Z,97992.64
2018-11-23T23:10:28.204Z,97989.45
2018-11-23T23:12:57.198Z,97986.83
2018-11-23T23:15:26.321Z,97983.80
2018-11-23T23:17:55.358Z,97971.56
2018-11-23T23:20:24.689Z,97963.96
2018-11-23T23:22:53.665Z,97957.58
2018-11-23T23:25:22.685Z,97970.31
2018-11-23T23:27:51.771Z,97970.53
2018-11-23T23:30:20.746Z,97959.80
2018-11-23T23:32:50.272Z,97957.75
2018-11-23T23:35:19.711Z,97960.42
2018-11-23T23:37:49.126Z,97959.30
2018-11-23T23:40:18.589Z,97955.86
2018-11-23T23:42:48.200Z,97949.14
2018-11-23T23:45:18.151Z,97941.08
2018-11-23T23:47:47.177Z,97928.09
2018-11-23T23:50:19.673Z,97930.66
2018-11-23T23:52:49.713Z,97928.80
2018-11-23T23:55:18.705Z,97923.42
2018-11-23T23:57:48.328Z,97932.21
